Time;durP1;ratioP1;P1;durP2;ratioP2;P2;SDS_P1;SDS_P2;PMS_P1;PMS_P2;Temp;Humidity;BMP_temperature;BMP_pressure;BME280_temperature;BME280_humidity;BME280_pressure;Samples;Min_cycle;Max_cycle;Signal;HPM_P1;HPM_P2
2023/01/27 00:00:25;;;;;;;25.52;13.70;;;-0.30;99.90;;;;;;4870460;29;20050;-75
2023/01/27 00:02:51;;;;;;;26.15;13.95;;;-0.30;99.90;;;;;;4869695;29;20091;-74
2023/01/27 00:05:17;;;;;;;25.23;13.27;;;-0.40;99.90;;;;;;4869523;29;20310;-74
2023/01/27 00:07:46;;;;;;;24.23;13.15;;;-0.30;99.90;;;;;;4871124;29;20319;-73
2023/01/27 00:10:18;;;;;;;25.20;12.02;;;-0.30;99.90;;;;;;4870370;29;20348;-75
2023/01/27 00:15:30;;;;;;;21.88;12.82;;;-0.30;99.90;;;;;;4870495;29;20030;-74
2023/01/27 00:17:56;;;;;;;23.48;12.60;;;-0.30;99.90;;;;;;4869957;29;20112;-74
2023/01/27 00:26:18;;;;;;;21.52;12.13;;;-0.40;99.90;;;;;;4870146;29;20077;-74
2023/01/27 00:28:46;;;;;;;21.88;12.65;;;-0.30;99.90;;;;;;4869146;29;20224;-77
2023/01/27 06:02:00;;;;;;;28.50;13.52;;;0.00;99.90;;;;;;5578744;23;20140;-72
2023/01/27 06:04:26;;;;;;;24.15;13.88;;;0.00;99.90;;;;;;4862435;29;20033;-71
2023/01/27 06:06:52;;;;;;;22.60;13.25;;;-0.10;99.90;;;;;;4845813;29;20032;-74
2023/01/27 06:09:18;;;;;;;25.98;13.68;;;-0.20;99.90;;;;;;4868879;29;20041;-74
2023/01/27 06:11:44;;;;;;;26.50;14.40;;;-0.20;99.90;;;;;;4869461;29;20318;-74
2023/01/27 06:14:09;;;;;;;24.70;14.43;;;-0.20;99.90;;;;;;4869371;29;20045;-75
2023/01/27 06:16:36;;;;;;;28.33;15.27;;;-0.20;99.90;;;;;;4868748;29;20037;-74
2023/01/27 06:19:01;;;;;;;26.48;14.52;;;-0.20;99.90;;;;;;4869128;29;20037;-74
2023/01/27 06:21:27;;;;;;;28.20;14.82;;;-0.20;99.90;;;;;;4869313;29;20089;-74
2023/01/27 06:23:53;;;;;;;27.88;14.70;;;-0.20;99.90;;;;;;4868962;29;20384;-73
2023/01/27 06:26:19;;;;;;;27.23;15.02;;;-0.20;99.90;;;;;;4867125;29;20041;-73
2023/01/27 06:28:45;;;;;;;31.58;15.60;;;-0.20;99.90;;;;;;4871861;29;20375;-73
2023/01/27 06:31:14;;;;;;;27.95;15.38;;;-0.10;99.90;;;;;;4872584;29;20042;-73
2023/01/27 06:33:43;;;;;;;28.02;14.68;;;0.00;99.90;;;;;;4872077;29;20142;-73
2023/01/27 06:36:11;;;;;;;24.45;13.15;;;0.10;99.90;;;;;;4872283;29;20092;-74
2023/01/27 06:38:37;;;;;;;24.55;13.57;;;0.10;99.90;;;;;;4872276;29;20033;-72
2023/01/27 06:41:04;;;;;;;24.17;13.10;;;0.10;99.90;;;;;;4872573;29;20323;-72
2023/01/27 06:43:30;;;;;;;28.67;14.43;;;0.00;99.90;;;;;;4872390;29;20283;-73
2023/01/27 06:45:58;;;;;;;25.58;13.60;;;0.00;99.90;;;;;;4872039;29;20209;-72
2023/01/27 06:48:24;;;;;;;24.27;13.52;;;0.00;99.90;;;;;;4870715;29;20081;-73
2023/01/27 06:50:52;;;;;;;24.83;13.73;;;0.00;99.90;;;;;;4871842;29;20040;-73
2023/01/27 06:53:18;;;;;;;25.92;14.15;;;0.00;99.90;;;;;;4872148;29;20077;-73
2023/01/27 06:55:44;;;;;;;26.30;13.82;;;0.00;99.90;;;;;;4872761;29;20029;-73
2023/01/27 06:58:11;;;;;;;24.92;13.90;;;0.00;99.90;;;;;;4867419;29;20022;-74
2023/01/27 07:00:38;;;;;;;25.65;13.50;;;0.00;99.90;;;;;;4874652;29;20096;-73
2023/01/27 07:03:04;;;;;;;26.63;14.45;;;0.00;99.90;;;;;;4868565;29;20085;-74
2023/01/27 07:05:31;;;;;;;26.75;14.38;;;0.20;99.90;;;;;;4853592;29;20038;-73
2023/01/27 07:07:58;;;;;;;26.65;13.57;;;0.20;99.90;;;;;;4853219;29;20044;-74
2023/01/27 07:10:23;;;;;;;24.40;13.60;;;0.30;99.90;;;;;;4852786;29;20304;-74
2023/01/27 07:12:50;;;;;;;27.65;14.48;;;0.30;99.90;;;;;;4853306;29;20068;-73
2023/01/27 07:15:15;;;;;;;27.55;14.15;;;0.30;99.90;;;;;;4852992;29;20543;-72
2023/01/27 07:17:41;;;;;;;25.05;13.73;;;0.30;99.90;;;;;;4852746;29;20065;-75
2023/01/27 07:20:11;;;;;;;25.23;13.60;;;0.20;99.90;;;;;;4852390;29;20083;-73
2023/01/27 07:22:36;;;;;;;21.95;12.98;;;0.20;99.90;;;;;;4852745;29;20034;-73
2023/01/27 07:25:04;;;;;;;25.52;13.27;;;0.20;99.90;;;;;;4853090;29;20037;-74
2023/01/27 07:27:29;;;;;;;24.88;13.38;;;0.10;99.90;;;;;;4852869;29;20041;-74
2023/01/27 07:29:55;;;;;;;28.60;14.07;;;0.20;99.90;;;;;;4852806;29;20042;-74
2023/01/27 07:32:21;;;;;;;24.75;13.05;;;0.20;99.90;;;;;;4852923;29;20068;-73
2023/01/27 07:34:47;;;;;;;24.05;12.95;;;0.20;99.90;;;;;;4852790;29;20172;-75
2023/01/27 07:37:13;;;;;;;21.65;12.80;;;0.20;99.90;;;;;;4853018;29;20040;-75
2023/01/27 07:39:39;;;;;;;22.05;12.35;;;0.20;99.90;;;;;;4852464;29;20033;-75
2023/01/27 07:42:05;;;;;;;24.60;13.25;;;0.20;99.90;;;;;;4853243;29;20049;-75
2023/01/27 07:44:31;;;;;;;20.50;12.38;;;0.20;99.90;;;;;;4853148;29;20041;-72
2023/01/27 07:46:58;;;;;;;21.70;11.98;;;0.30;99.90;;;;;;4852347;29;20097;-73
2023/01/27 07:49:24;;;;;;;21.02;12.00;;;0.30;99.90;;;;;;4852799;29;20049;-74
2023/01/27 07:51:50;;;;;;;20.15;11.65;;;0.40;99.90;;;;;;4852249;29;20118;-73
2023/01/27 07:54:16;;;;;;;23.48;11.65;;;0.40;99.90;;;;;;4851780;29;20034;-74
2023/01/27 07:56:42;;;;;;;16.27;9.55;;;0.40;99.90;;;;;;4852591;29;20045;-75
2023/01/27 07:59:10;;;;;;;20.55;10.98;;;0.30;99.90;;;;;;4852506;29;20042;-75
2023/01/27 08:01:36;;;;;;;18.85;10.65;;;0.40;99.90;;;;;;4851892;29;20038;-73
2023/01/27 08:04:02;;;;;;;21.85;10.88;;;0.30;99.90;;;;;;4852865;29;20038;-76
2023/01/27 08:06:28;;;;;;;21.85;11.05;;;0.40;99.90;;;;;;4852762;29;20053;-73
2023/01/27 08:08:54;;;;;;;19.38;10.75;;;0.40;99.90;;;;;;4852023;29;20216;-75
2023/01/27 08:11:20;;;;;;;18.92;10.15;;;0.40;99.90;;;;;;4850519;29;20064;-73
2023/01/27 08:13:46;;;;;;;19.30;10.35;;;0.50;99.90;;;;;;4851955;29;20090;-73
2023/01/27 08:16:14;;;;;;;17.30;9.32;;;0.50;99.90;;;;;;4852083;29;20105;-71
2023/01/27 08:18:40;;;;;;;18.90;10.43;;;0.50;99.90;;;;;;4851139;29;20034;-74
2023/01/27 08:21:08;;;;;;;18.83;9.82;;;0.60;99.90;;;;;;4851656;29;20041;-75
2023/01/27 08:23:34;;;;;;;19.88;10.45;;;0.50;99.90;;;;;;4852189;29;20164;-75
2023/01/27 08:26:02;;;;;;;17.95;9.85;;;0.50;99.90;;;;;;4852118;29;20041;-74
2023/01/27 08:28:30;;;;;;;30.52;16.40;;;0.50;99.90;;;;;;4852140;29;20053;-74
2023/01/27 08:31:06;;;;;;;18.63;9.80;;;0.60;99.90;;;;;;4851628;29;20057;-74
2023/01/27 08:33:33;;;;;;;20.30;9.45;;;0.60;99.90;;;;;;4852111;29;20176;-72
2023/01/27 08:36:08;;;;;;;17.80;9.85;;;0.60;99.90;;;;;;4850533;29;20319;-75
2023/01/27 08:38:33;;;;;;;18.75;9.40;;;0.60;99.90;;;;;;4851995;29;20049;-74
2023/01/27 08:41:04;;;;;;;18.05;9.20;;;0.60;99.90;;;;;;4851288;29;20090;-73
2023/01/27 08:43:30;;;;;;;17.83;9.40;;;0.60;99.90;;;;;;4851946;29;20049;-72
2023/01/27 08:45:57;;;;;;;18.25;9.60;;;0.60;99.90;;;;;;4851845;29;20045;-74
2023/01/27 08:48:23;;;;;;;18.38;10.13;;;0.70;99.90;;;;;;4851730;29;20201;-74
2023/01/27 08:50:49;;;;;;;18.88;9.70;;;0.60;99.90;;;;;;4850883;29;20069;-74
2023/01/27 08:53:15;;;;;;;19.25;10.18;;;0.60;99.90;;;;;;4851795;29;20042;-76
2023/01/27 08:55:40;;;;;;;19.75;10.65;;;0.60;99.90;;;;;;4851212;29;20028;-74
2023/01/27 08:58:06;;;;;;;19.77;9.75;;;0.60;99.90;;;;;;4850958;29;20096;-75
2023/01/27 09:00:32;;;;;;;18.90;9.75;;;0.60;99.90;;;;;;4851739;29;20055;-75
2023/01/27 09:02:58;;;;;;;18.88;9.75;;;0.60;99.90;;;;;;4850851;29;20447;-72
2023/01/27 09:05:24;;;;;;;20.92;10.80;;;0.60;99.90;;;;;;4851452;29;20034;-72
2023/01/27 09:07:49;;;;;;;18.08;10.15;;;0.70;99.90;;;;;;4851354;29;20089;-73
2023/01/27 09:10:16;;;;;;;20.13;10.10;;;0.70;99.90;;;;;;4850238;29;20284;-73
2023/01/27 09:12:42;;;;;;;19.42;10.25;;;0.80;99.90;;;;;;4851199;29;20104;-74
2023/01/27 09:15:12;;;;;;;21.67;11.35;;;0.70;99.90;;;;;;4851095;29;20040;-75
2023/01/27 09:17:38;;;;;;;21.17;10.80;;;0.80;99.90;;;;;;4850990;29;20118;-74
2023/01/27 09:20:04;;;;;;;19.80;10.43;;;0.90;99.90;;;;;;4850919;29;20049;-75
2023/01/27 09:22:30;;;;;;;21.90;11.75;;;0.90;99.90;;;;;;4851322;29;20105;-74
2023/01/27 09:24:56;;;;;;;23.67;11.05;;;0.90;99.90;;;;;;4850784;29;20150;-73
2023/01/27 09:27:22;;;;;;;25.27;12.40;;;0.80;99.90;;;;;;4851211;29;20041;-74
2023/01/27 09:29:47;;;;;;;21.55;11.10;;;0.90;99.90;;;;;;4849986;29;20364;-74
2023/01/27 09:32:13;;;;;;;22.63;12.05;;;0.90;99.90;;;;;;4851251;29;20057;-75
2023/01/27 09:34:42;;;;;;;22.45;11.35;;;0.90;99.90;;;;;;4851209;29;20105;-74
2023/01/27 09:37:09;;;;;;;23.88;12.10;;;0.90;99.90;;;;;;4849906;29;20101;-73
2023/01/27 09:39:41;;;;;;;15.70;8.20;;;0.80;99.90;;;;;;4851242;29;20049;-74
2023/01/27 09:42:39;;;;;;;24.00;11.43;;;0.80;99.90;;;;;;4851577;29;20594;-73
2023/01/27 09:45:44;;;;;;;24.25;11.35;;;0.80;99.90;;;;;;4832795;29;20034;-72
2023/01/27 09:48:37;;;;;;;22.20;11.45;;;0.90;99.90;;;;;;4843477;29;20043;-73
2023/01/27 09:51:31;;;;;;;23.75;11.57;;;0.90;99.90;;;;;;4832664;29;20049;-72
2023/01/27 09:54:09;;;;;;;26.20;12.70;;;0.80;99.90;;;;;;4832795;29;20042;-73
2023/01/27 09:56:56;;;;;;;24.88;12.43;;;0.80;99.90;;;;;;4852380;29;20034;-73
2023/01/27 09:59:31;;;;;;;27.42;12.60;;;0.80;99.90;;;;;;4841554;29;20029;-74
2023/01/27 10:02:22;;;;;;;25.85;12.43;;;0.80;99.90;;;;;;4849361;29;20052;-72
2023/01/27 10:05:08;;;;;;;26.58;12.50;;;0.80;99.90;;;;;;4852752;29;20215;-73
2023/01/27 10:08:07;;;;;;;26.40;11.32;;;0.90;99.90;;;;;;4854333;29;20082;-73
2023/01/27 10:11:08;;;;;;;24.25;10.68;;;1.00;99.90;;;;;;4854770;29;20117;-76
2023/01/27 10:13:37;;;;;;;23.63;10.80;;;1.10;99.90;;;;;;4868828;29;20046;-74
2023/01/27 10:16:19;;;;;;;24.08;10.82;;;1.20;99.90;;;;;;4854280;29;20034;-73
2023/01/27 10:19:21;;;;;;;24.25;10.88;;;1.20;99.90;;;;;;4853375;29;20065;-72
2023/01/27 10:22:11;;;;;;;21.15;9.93;;;1.50;99.90;;;;;;4854363;29;20038;-72
2023/01/27 10:24:56;;;;;;;21.42;9.90;;;1.50;99.90;;;;;;4854236;29;20096;-73
2023/01/27 10:27:26;;;;;;;19.08;9.18;;;1.50;99.90;;;;;;4854398;29;20102;-73
2023/01/27 10:30:07;;;;;;;18.38;9.18;;;1.50;99.90;;;;;;4854168;29;20379;-72
2023/01/27 10:32:43;;;;;;;23.77;9.80;;;1.50;99.90;;;;;;4854344;29;20037;-71
2023/01/27 10:35:53;;;;;;;21.73;9.75;;;1.50;99.90;;;;;;4854666;29;20037;-72
2023/01/27 10:38:37;;;;;;;20.13;10.38;;;1.50;99.90;;;;;;4858120;29;20257;-74
2023/01/27 10:41:15;;;;;;;17.63;8.85;;;1.60;99.90;;;;;;4854546;29;20107;-75
2023/01/27 10:44:02;;;;;;;21.20;9.80;;;1.80;99.90;;;;;;4854155;29;20045;-74
2023/01/27 10:46:49;;;;;;;19.40;8.77;;;1.80;99.90;;;;;;4854384;29;20040;-76
2023/01/27 10:49:39;;;;;;;17.70;9.35;;;1.90;99.90;;;;;;4853372;29;20072;-71
2023/01/27 10:52:12;;;;;;;19.10;9.13;;;1.80;99.90;;;;;;4845219;29;20317;-74
2023/01/27 10:54:54;;;;;;;20.42;10.10;;;1.90;99.90;;;;;;4835397;29;20043;-73
2023/01/27 10:57:41;;;;;;;20.70;8.45;;;1.90;99.90;;;;;;4839322;29;20038;-74
2023/01/27 11:00:33;;;;;;;18.35;8.80;;;1.90;99.90;;;;;;4849694;29;20116;-74
2023/01/27 11:03:39;;;;;;;17.23;9.13;;;2.00;99.90;;;;;;4834705;29;20050;-74
2023/01/27 11:06:18;;;;;;;16.95;8.68;;;2.00;99.90;;;;;;4865645;29;20104;-72
2023/01/27 11:08:48;;;;;;;19.58;8.90;;;2.00;99.90;;;;;;4853692;29;20127;-75
2023/01/27 11:14:09;;;;;;;18.25;8.80;;;1.90;99.90;;;;;;4853197;29;20243;-73
2023/01/27 11:16:38;;;;;;;16.95;7.65;;;1.90;99.90;;;;;;4853611;29;20293;-73
2023/01/27 11:19:24;;;;;;;20.00;8.93;;;2.00;99.90;;;;;;4867599;29;20036;-73
2023/01/27 11:21:52;;;;;;;14.40;7.22;;;1.90;99.90;;;;;;4853397;29;20034;-72
2023/01/27 11:24:29;;;;;;;15.07;8.18;;;1.90;99.90;;;;;;4853761;29;20113;-73
2023/01/27 11:27:04;;;;;;;16.07;8.17;;;2.00;99.90;;;;;;4854286;29;20048;-74
2023/01/27 11:29:44;;;;;;;13.55;6.93;;;2.00;99.90;;;;;;4853498;29;20443;-73
2023/01/27 11:32:38;;;;;;;15.50;6.95;;;2.00;99.90;;;;;;4853193;29;20053;-75
2023/01/27 11:35:13;;;;;;;15.93;7.65;;;2.00;99.90;;;;;;4854795;29;20106;-74
2023/01/27 11:37:42;;;;;;;13.85;7.43;;;2.00;99.90;;;;;;4851934;29;20308;-75
2023/01/27 11:40:27;;;;;;;14.93;6.82;;;2.00;99.90;;;;;;4852929;29;20038;-74
2023/01/27 11:42:57;;;;;;;13.45;6.82;;;2.00;99.90;;;;;;4853801;29;20042;-72
2023/01/27 11:45:23;;;;;;;15.77;7.75;;;1.90;99.90;;;;;;4852626;29;20068;-72
2023/01/27 11:47:57;;;;;;;14.57;7.88;;;2.00;99.90;;;;;;4852524;29;20041;-75
2023/01/27 11:50:28;;;;;;;13.80;7.50;;;2.10;99.90;;;;;;4852641;29;20061;-73
2023/01/27 11:53:20;;;;;;;12.90;6.75;;;2.10;99.90;;;;;;4846040;29;20372;-75
2023/01/27 11:56:01;;;;;;;13.80;7.40;;;2.10;99.90;;;;;;4850531;29;20093;-73
2023/01/27 11:58:35;;;;;;;15.68;7.63;;;2.20;99.90;;;;;;4852494;29;20034;-73
2023/01/27 12:01:04;;;;;;;14.95;8.07;;;2.20;99.90;;;;;;4866470;29;20075;-74
2023/01/27 12:03:36;;;;;;;16.50;8.00;;;2.10;99.90;;;;;;4852198;29;20057;-75
2023/01/27 12:06:10;;;;;;;15.10;7.95;;;2.10;99.90;;;;;;4850564;29;20038;-74
2023/01/27 12:08:43;;;;;;;14.52;8.50;;;2.20;99.90;;;;;;4852578;29;20049;-75
2023/01/27 12:11:35;;;;;;;14.95;8.00;;;2.10;99.90;;;;;;4852117;29;20049;-73
2023/01/27 12:14:03;;;;;;;16.58;8.70;;;2.10;99.90;;;;;;4844609;29;20037;-75
2023/01/27 12:16:43;;;;;;;14.32;7.55;;;2.10;99.90;;;;;;4852241;29;20034;-75
2023/01/27 12:19:41;;;;;;;17.90;8.85;;;2.20;99.90;;;;;;4851755;29;20054;-75
2023/01/27 12:22:27;;;;;;;16.17;8.38;;;2.20;99.90;;;;;;4863336;29;20049;-76
2023/01/27 12:25:07;;;;;;;19.67;8.82;;;2.10;99.90;;;;;;4860867;29;20045;-74
2023/01/27 12:27:45;;;;;;;20.98;9.88;;;2.20;99.90;;;;;;4868608;29;20096;-75
2023/01/27 12:30:23;;;;;;;19.77;9.32;;;2.20;99.90;;;;;;4852976;29;20219;-75
2023/01/27 12:32:50;;;;;;;20.80;10.10;;;2.20;99.90;;;;;;4866237;29;20108;-73
2023/01/27 12:35:33;;;;;;;18.45;9.27;;;2.20;99.90;;;;;;4868584;29;20057;-77
2023/01/27 12:38:06;;;;;;;18.77;9.52;;;2.40;99.90;;;;;;4865782;29;20260;-74
2023/01/27 12:40:33;;;;;;;19.13;9.40;;;2.30;99.90;;;;;;4868007;29;20096;-74
2023/01/27 12:43:01;;;;;;;17.13;8.95;;;2.20;99.90;;;;;;4867727;29;20098;-74
2023/01/27 12:45:37;;;;;;;22.73;9.57;;;2.30;99.90;;;;;;4868133;29;20069;-75
2023/01/27 12:48:08;;;;;;;19.42;9.35;;;2.20;99.90;;;;;;4868290;29;20042;-75
2023/01/27 12:50:40;;;;;;;21.33;9.48;;;2.30;99.90;;;;;;4868137;29;20061;-74
2023/01/27 12:53:14;;;;;;;24.70;9.85;;;2.30;99.90;;;;;;4868020;29;20048;-74
2023/01/27 12:55:51;;;;;;;19.88;9.50;;;2.30;99.90;;;;;;4852386;29;20037;-73
2023/01/27 12:58:39;;;;;;;19.20;10.07;;;2.30;99.90;;;;;;4861099;29;20073;-74
2023/01/27 13:01:21;;;;;;;21.20;10.38;;;2.30;99.90;;;;;;4846270;29;20308;-75
2023/01/27 13:03:58;;;;;;;20.70;9.90;;;2.40;99.90;;;;;;4851510;29;20137;-74
2023/01/27 13:06:46;;;;;;;21.92;10.35;;;2.30;99.90;;;;;;4851232;29;20048;-74
2023/01/27 13:09:33;;;;;;;21.08;10.48;;;2.20;99.90;;;;;;4846864;29;20044;-74
2023/01/27 13:12:19;;;;;;;21.75;9.63;;;2.10;99.90;;;;;;4845003;29;20041;-75
2023/01/27 13:14:49;;;;;;;20.20;9.93;;;2.10;99.90;;;;;;4865478;29;20324;-74
2023/01/27 13:17:36;;;;;;;20.40;10.60;;;2.10;99.90;;;;;;4851392;29;20062;-74
2023/01/27 13:20:16;;;;;;;20.75;9.88;;;2.10;99.90;;;;;;4845547;29;20042;-74
2023/01/27 13:23:04;;;;;;;21.45;10.65;;;2.00;99.90;;;;;;4851051;29;20045;-75
2023/01/27 13:25:54;;;;;;;21.27;10.07;;;1.90;99.90;;;;;;4851388;29;20029;-75
2023/01/27 13:28:34;;;;;;;22.85;10.18;;;1.90;99.90;;;;;;4851387;29;20168;-74
2023/01/27 13:31:07;;;;;;;19.80;10.50;;;1.70;99.90;;;;;;4850588;29;20038;-74
2023/01/27 13:33:44;;;;;;;21.83;10.68;;;1.70;99.90;;;;;;4851192;29;20053;-74
2023/01/27 13:36:25;;;;;;;22.30;10.40;;;1.70;99.90;;;;;;4851027;29;20033;-75
2023/01/27 13:39:14;;;;;;;21.20;11.05;;;1.70;99.90;;;;;;4851203;29;20034;-75
2023/01/27 13:42:11;;;;;;;23.20;10.95;;;1.70;99.90;;;;;;4852035;29;20097;-72
2023/01/27 13:45:00;;;;;;;20.63;10.60;;;1.70;99.90;;;;;;4851422;29;20102;-73
2023/01/27 13:47:33;;;;;;;22.77;10.98;;;1.60;99.90;;;;;;4851582;29;20093;-73
2023/01/27 13:50:06;;;;;;;22.15;11.82;;;1.70;99.90;;;;;;4850838;29;20067;-73
2023/01/27 13:52:32;;;;;;;22.40;10.75;;;1.70;99.90;;;;;;4847535;29;20045;-75
2023/01/27 13:54:58;;;;;;;22.23;11.02;;;1.60;99.90;;;;;;4832961;29;20035;-74
2023/01/27 13:57:51;;;;;;;22.70;11.95;;;1.60;99.90;;;;;;4851612;29;20244;-73
2023/01/27 14:00:59;;;;;;;21.25;11.10;;;1.60;99.90;;;;;;4850121;29;20102;-74
2023/01/27 14:03:33;;;;;;;23.33;11.13;;;1.60;99.90;;;;;;4857309;29;20099;-75
2023/01/27 14:06:08;;;;;;;21.77;11.70;;;1.50;99.90;;;;;;4850471;29;20275;-74
2023/01/27 14:08:51;;;;;;;22.15;11.02;;;1.50;99.90;;;;;;4846731;29;20033;-74
2023/01/27 14:11:29;;;;;;;22.05;11.80;;;1.50;99.90;;;;;;4850394;29;20360;-76
2023/01/27 14:14:25;;;;;;;22.90;11.98;;;1.50;99.90;;;;;;4850733;29;20030;-76
2023/01/27 14:17:11;;;;;;;22.45;11.70;;;1.40;99.90;;;;;;4850916;29;20106;-75
2023/01/27 14:19:55;;;;;;;26.17;13.38;;;1.40;99.90;;;;;;4865065;29;20037;-75
2023/01/27 14:22:53;;;;;;;26.42;13.32;;;1.50;99.90;;;;;;4849521;29;20038;-75
2023/01/27 14:25:24;;;;;;;;;;;1.40;99.90;;;;;;4853842;29;20279;-74
2023/01/27 14:27:59;;;;;;;22.35;11.90;;;1.40;99.90;;;;;;4850455;29;19987;-75
2023/01/27 14:30:36;;;;;;;22.58;11.52;;;1.40;99.90;;;;;;4851188;29;20062;-76
2023/01/27 14:33:20;;;;;;;21.30;11.60;;;1.30;99.90;;;;;;4850714;29;20036;-76
2023/01/27 14:36:09;;;;;;;21.58;11.00;;;1.40;99.90;;;;;;4864920;29;20029;-75
2023/01/27 14:38:48;;;;;;;21.83;11.38;;;1.30;99.90;;;;;;4851856;29;20331;-74
2023/01/27 14:41:33;;;;;;;19.70;10.40;;;1.30;99.90;;;;;;4850008;29;20328;-74
2023/01/27 14:44:12;;;;;;;18.60;9.48;;;1.40;99.90;;;;;;4850069;29;20041;-76
2023/01/27 14:46:56;;;;;;;20.67;10.80;;;1.50;99.90;;;;;;4850448;29;20239;-76
2023/01/27 14:49:41;;;;;;;18.63;10.25;;;1.40;99.90;;;;;;4851884;29;20037;-76
2023/01/27 14:52:25;;;;;;;22.20;11.80;;;1.30;99.90;;;;;;4853394;29;20038;-76
2023/01/27 14:55:11;;;;;;;23.17;11.32;;;1.30;99.90;;;;;;4854201;29;20249;-75
2023/01/27 14:57:45;;;;;;;20.88;10.82;;;1.30;99.90;;;;;;4850726;29;20042;-76
2023/01/27 15:00:28;;;;;;;21.55;11.05;;;1.30;99.90;;;;;;4852545;29;20030;-76
2023/01/27 15:03:13;;;;;;;20.08;10.10;;;1.40;99.90;;;;;;4853604;29;20042;-75
2023/01/27 15:05:56;;;;;;;21.55;10.93;;;1.40;99.90;;;;;;4854012;29;20034;-75
2023/01/27 15:08:47;;;;;;;19.85;11.02;;;1.50;99.90;;;;;;4868415;29;20071;-75
2023/01/27 15:11:27;;;;;;;19.35;10.43;;;1.50;99.90;;;;;;4853301;29;20346;-74
2023/01/27 15:14:07;;;;;;;20.55;10.43;;;1.50;99.90;;;;;;4853375;29;20364;-76
2023/01/27 15:16:59;;;;;;;19.65;10.70;;;1.50;99.90;;;;;;4852438;29;20106;-75
2023/01/27 15:19:28;;;;;;;24.23;10.77;;;1.60;99.90;;;;;;4853619;29;20089;-76
2023/01/27 15:22:14;;;;;;;20.60;10.95;;;1.60;99.90;;;;;;4853215;29;20045;-76
2023/01/27 15:24:48;;;;;;;22.77;11.00;;;1.60;99.90;;;;;;4853514;29;20167;-75
2023/01/27 15:27:14;;;;;;;20.27;10.65;;;1.60;99.90;;;;;;4852608;29;20040;-74
2023/01/27 15:29:40;;;;;;;21.33;10.43;;;1.60;99.90;;;;;;4853406;29;20045;-73
2023/01/27 15:32:26;;;;;;;18.60;10.20;;;1.60;99.90;;;;;;4852406;29;20037;-75
2023/01/27 15:35:13;;;;;;;18.73;10.48;;;1.50;99.90;;;;;;4852703;29;20213;-75
2023/01/27 15:38:19;;;;;;;20.40;10.52;;;1.50;99.90;;;;;;4853091;29;20040;-73
2023/01/27 15:41:06;;;;;;;19.95;10.50;;;1.40;99.90;;;;;;4852500;29;20285;-75
2023/01/27 15:43:36;;;;;;;22.42;10.82;;;1.40;99.90;;;;;;4853131;29;20319;-75
2023/01/27 15:46:28;;;;;;;18.58;10.30;;;1.30;99.90;;;;;;4852484;29;20142;-72
2023/01/27 15:48:56;;;;;;;19.75;10.00;;;1.30;99.90;;;;;;4866891;29;20058;-73
2023/01/27 15:51:23;;;;;;;18.40;10.40;;;1.30;99.90;;;;;;4852916;29;20327;-74
2023/01/27 15:53:53;;;;;;;17.55;10.32;;;1.30;99.90;;;;;;4852646;29;20022;-72
2023/01/27 15:56:19;;;;;;;16.25;9.40;;;1.40;99.90;;;;;;4852238;29;20316;-74
2023/01/27 15:58:56;;;;;;;20.13;10.45;;;1.50;99.90;;;;;;4852902;29;20030;-72
2023/01/27 16:01:26;;;;;;;17.98;9.95;;;1.50;99.90;;;;;;4851937;29;20034;-73
2023/01/27 16:04:06;;;;;;;19.38;10.73;;;1.40;99.90;;;;;;4867028;29;20335;-74
2023/01/27 16:06:33;;;;;;;16.73;9.45;;;1.40;99.90;;;;;;4852775;29;20128;-73
2023/01/27 16:09:05;;;;;;;16.83;9.77;;;1.40;99.90;;;;;;4852099;29;20299;-74
2023/01/27 16:11:31;;;;;;;20.02;10.73;;;1.30;99.90;;;;;;4852790;29;20113;-75
2023/01/27 16:14:12;;;;;;;26.80;15.60;;;1.30;99.90;;;;;;4866921;29;20095;-74
2023/01/27 16:16:52;;;;;;;21.98;11.23;;;1.40;99.90;;;;;;4852569;29;20372;-75
2023/01/27 16:19:27;;;;;;;21.67;10.63;;;1.40;99.90;;;;;;4851839;29;20272;-74
2023/01/27 16:21:58;;;;;;;17.55;9.82;;;1.40;99.90;;;;;;4852483;29;20038;-74
2023/01/27 16:24:30;;;;;;;20.20;9.93;;;1.30;99.90;;;;;;4851496;29;20197;-75
2023/01/27 16:27:16;;;;;;;16.40;9.32;;;1.20;99.90;;;;;;4866514;29;20033;-74
2023/01/27 16:29:56;;;;;;;17.88;9.50;;;1.30;99.90;;;;;;4852504;29;20219;-74
2023/01/27 16:32:27;;;;;;;17.83;9.00;;;1.30;99.90;;;;;;4851608;29;20042;-74
2023/01/27 16:34:59;;;;;;;15.23;8.38;;;1.30;99.90;;;;;;4851900;29;20034;-73
2023/01/27 16:37:28;;;;;;;18.73;9.73;;;1.30;99.90;;;;;;4852024;29;20224;-74
2023/01/27 16:40:15;;;;;;;29.60;14.95;;;1.30;99.90;;;;;;4852088;29;20046;-73
2023/01/27 16:42:54;;;;;;;20.63;11.85;;;1.30;99.90;;;;;;4866517;29;20292;-72
2023/01/27 16:45:37;;;;;;;15.95;9.25;;;1.30;99.90;;;;;;4850509;29;20056;-73
2023/01/27 16:48:10;;;;;;;15.48;8.45;;;1.20;99.90;;;;;;4851667;29;20029;-73
2023/01/27 16:50:41;;;;;;;16.52;8.90;;;1.30;99.90;;;;;;4851833;29;20041;-73
2023/01/27 16:53:18;;;;;;;15.63;9.52;;;1.30;99.90;;;;;;4851212;29;20065;-74
2023/01/27 16:56:05;;;;;;;17.15;9.07;;;1.30;99.90;;;;;;4851876;29;20037;-77
2023/01/27 16:58:37;;;;;;;14.43;8.32;;;1.30;99.90;;;;;;4852418;29;20025;-76
2023/01/27 17:01:03;;;;;;;20.10;9.80;;;1.40;99.90;;;;;;4835357;29;20034;-75
2023/01/27 17:03:36;;;;;;;17.40;9.02;;;1.30;99.90;;;;;;4851505;29;20046;-74
2023/01/27 17:06:13;;;;;;;14.15;8.18;;;1.30;99.90;;;;;;4851030;29;20312;-76
2023/01/27 17:08:43;;;;;;;15.02;8.30;;;1.40;99.90;;;;;;4850438;29;20034;-77
2023/01/27 17:11:22;;;;;;;14.73;8.73;;;1.40;99.90;;;;;;4850903;29;20346;-76
2023/01/27 17:13:58;;;;;;;14.32;8.57;;;1.50;99.90;;;;;;4851643;29;20151;-80
2023/01/27 17:16:29;;;;;;;14.57;7.78;;;1.40;99.90;;;;;;4850242;29;20041;-75
2023/01/27 17:19:01;;;;;;;14.38;8.70;;;1.50;99.90;;;;;;4850484;29;20034;-75
2023/01/27 17:21:36;;;;;;;16.17;8.40;;;1.50;99.90;;;;;;4851602;29;20026;-75
2023/01/27 17:24:15;;;;;;;15.57;8.38;;;1.50;99.90;;;;;;4850595;29;20172;-75
2023/01/27 17:26:45;;;;;;;17.20;9.23;;;1.50;99.90;;;;;;4850347;29;20030;-75
2023/01/27 17:29:21;;;;;;;16.65;8.77;;;1.50;99.90;;;;;;4850885;29;20092;-76
2023/01/27 17:31:48;;;;;;;17.63;9.00;;;1.50;99.90;;;;;;4850922;29;20082;-76
2023/01/27 17:34:19;;;;;;;18.00;9.75;;;1.50;99.90;;;;;;4850718;29;20052;-77
2023/01/27 17:37:14;;;;;;;16.23;9.00;;;1.50;99.90;;;;;;4865612;29;20215;-77
2023/01/27 17:39:40;;;;;;;13.38;7.90;;;1.50;99.90;;;;;;4850933;29;20046;-79
2023/01/27 17:42:06;;;;;;;15.55;7.68;;;1.50;99.90;;;;;;4865016;29;20037;-75
2023/01/27 17:44:32;;;;;;;15.70;7.63;;;1.40;99.90;;;;;;4851264;29;20101;-75
2023/01/27 17:47:01;;;;;;;13.77;7.63;;;1.30;99.90;;;;;;4850105;29;20038;-74
2023/01/27 17:49:29;;;;;;;15.88;8.30;;;1.30;99.90;;;;;;4849498;29;20028;-75
2023/01/27 17:51:56;;;;;;;28.67;15.67;;;1.30;99.90;;;;;;4850967;29;20038;-77
2023/01/27 17:54:36;;;;;;;20.00;11.80;;;1.40;99.90;;;;;;4864595;29;20438;-75
2023/01/27 17:57:14;;;;;;;17.63;10.13;;;1.40;99.90;;;;;;4850495;29;20336;-77
2023/01/27 17:59:44;;;;;;;16.25;8.50;;;1.40;99.90;;;;;;4850607;29;20030;-76
2023/01/27 18:02:35;;;;;;;15.93;8.45;;;1.50;99.90;;;;;;4850236;29;20042;-75
2023/01/27 18:05:12;;;;;;;16.75;8.45;;;1.50;99.90;;;;;;4851189;29;20093;-77
2023/01/27 18:07:38;;;;;;;17.33;8.60;;;1.50;99.90;;;;;;4850989;29;20034;-77
2023/01/27 18:10:27;;;;;;;13.73;8.15;;;1.50;99.90;;;;;;4850835;29;20208;-76
2023/01/27 18:12:53;;;;;;;18.23;8.23;;;1.50;99.90;;;;;;4850478;29;20037;-77
2023/01/27 18:15:46;;;;;;;16.58;8.32;;;1.40;99.90;;;;;;4850377;29;20049;-77
2023/01/27 18:18:23;;;;;;;14.52;8.13;;;1.50;99.90;;;;;;4850316;29;20041;-77
2023/01/27 18:20:56;;;;;;;15.93;7.75;;;1.50;99.90;;;;;;4851171;29;20041;-77
2023/01/27 18:23:31;;;;;;;15.30;8.90;;;1.50;99.90;;;;;;4851339;29;20030;-79
2023/01/27 18:26:20;;;;;;;15.73;8.52;;;1.60;99.90;;;;;;4869092;29;20041;-75
2023/01/27 18:28:59;;;;;;;13.48;8.23;;;1.60;99.90;;;;;;4854553;29;20026;-75
2023/01/27 18:31:33;;;;;;;14.35;8.40;;;1.60;99.90;;;;;;4854069;29;20220;-74
2023/01/27 18:34:25;;;;;;;17.63;8.45;;;1.60;99.90;;;;;;4854438;29;20109;-76
2023/01/27 18:36:58;;;;;;;14.13;8.07;;;1.60;99.90;;;;;;4868202;29;20100;-77
2023/01/27 18:39:40;;;;;;;16.65;8.65;;;1.60;99.90;;;;;;4867855;29;20061;-77
2023/01/27 18:42:16;;;;;;;14.18;7.82;;;1.60;99.90;;;;;;4853711;29;20098;-76
2023/01/27 18:44:42;;;;;;;14.23;8.05;;;1.50;99.90;;;;;;4853902;29;20069;-78
2023/01/27 18:47:17;;;;;;;14.30;8.38;;;1.50;99.90;;;;;;4853828;29;20044;-77
2023/01/27 18:49:43;;;;;;;14.13;8.18;;;1.50;99.90;;;;;;4853986;29;20262;-76
2023/01/27 18:52:12;;;;;;;14.55;8.65;;;1.50;99.90;;;;;;4867870;29;20053;-77
2023/01/27 18:54:38;;;;;;;16.73;8.82;;;1.60;99.90;;;;;;4868516;29;20216;-77
2023/01/27 18:57:04;;;;;;;14.10;8.52;;;1.60;99.90;;;;;;4869209;29;20034;-74
2023/01/27 18:59:29;;;;;;;13.75;7.63;;;1.50;99.90;;;;;;4867805;29;20029;-80
2023/01/27 19:01:55;;;;;;;13.30;7.60;;;1.50;99.90;;;;;;4868045;29;20049;-77